Hovedside
METAR-TAF:

METAR-TAF

Lufthavner :

El Alto internasjonale flyplass

La Paz, Bolivia

breddegrad: 16-31S, lengdegrad: 068-11W, høyde over havet: 4058 m

Gjeldene værobservasjon

Denne rapporten ble laget for 7 minutter siden, klokken 21:00 UTC
Vind 8 kt fra Vest-nordvest
Temperatur 14°C
Luftfuktighet 28%
Trykk 1038 hPa
Sikt 10 km eller mer
Få skyer i en høyde av 1700 ft

METAR: SLLP 252100Z 30008KT 9999 FEW017 14/M04 Q1038

Tid: 17:07 (21:07 UTC)

Varsel

Denne rapporten ble laget for 5 timer og 7 minutter siden, klokken 16:00 UTC
Varsel gyldig fra 25. klokken 18 UTC til 26. klokken 18 UTC
Vind 12 kt fra Vest
Sikt 10 km eller mer
Få skyer i en høyde av 1700 ft
Blir
fra 25. klokken 23 UTC til 26. klokken 01 UTC
Vind 6 kt fra Øst-nordøst
Blir
fra 26. klokken 12 UTC til 26. klokken 14 UTC
Vind 10 kt fra Vest

TAF: SLLP 251600Z 2518/2618 27012KT 9999 FEW017 TX15/2519Z TNM01/2611Z BECMG 2523/2601 07006KT BECMG 2612/2614 27010KT

Værobservasjoner og værvarsel for over 4000 flyplasser (METAR- og TAF-rapporter).

Tilgjengelige stasjoner er representert av de røde og gule prikkene på kartet.

Hold musepekeren over prikken for å se navnet på stasjonen.

Klikk så for å se værobservasjoner og -varsler.

For å forandre kartet kan du klikke på den grønne knappen med svart kryss for å zoome inn, på den grønne knappen med strek for å zoome ut, eller på de grønne pilene for å se tilstøtende kart.


METAR-TAF: